Time;durP1;ratioP1;P1;durP2;ratioP2;P2;SDS_P1;SDS_P2;PMS_P1;PMS_P2;Temp;Humidity;BMP_temperature;BMP_pressure;BME280_temperature;BME280_humidity;BME280_pressure;Samples;Min_cycle;Max_cycle;Signal;HPM_P1;HPM_P2
2022/11/15 00:00:03;;;;;;;13.88;9.80;;;8.40;57.90;;;7.15;60.96;101182.72;12160172;19;20975;-85
2022/11/15 00:04:24;;;;;;;15.00;9.40;;;8.40;57.90;;;7.14;60.70;101171.47;12165661;19;20014;-85
2022/11/15 00:08:44;;;;;;;12.93;8.75;;;8.60;57.90;;;7.14;60.87;101175.81;12174771;19;20538;-84
2022/11/15 00:13:11;;;;;;;14.70;9.30;;;8.40;57.80;;;7.11;60.69;101165.53;12170040;19;20006;-85
2022/11/15 00:17:31;;;;;;;14.95;8.90;;;8.40;57.80;;;7.09;60.72;101169.03;12169255;19;20620;-85
2022/11/15 00:21:51;;;;;;;13.07;8.15;;;8.40;57.80;;;7.00;60.82;101150.31;12164776;19;20750;-85
2022/11/15 00:26:14;;;;;;;12.15;7.88;;;8.30;57.80;;;7.04;60.86;101168.31;12166510;19;20010;-85
2022/11/15 00:30:34;;;;;;;13.90;9.20;;;8.30;57.80;;;7.03;60.83;101165.78;12160781;19;20343;-85
2022/11/15 00:34:55;;;;;;;10.93;8.15;;;8.30;58.00;;;7.05;60.91;101164.84;12155256;19;20424;-85
2022/11/15 00:39:15;;;;;;;12.65;8.18;;;8.30;58.10;;;6.99;60.77;101146.84;12157006;19;21006;-85
2022/11/15 00:43:36;;;;;;;11.45;8.00;;;8.50;58.00;;;7.02;60.87;101156.28;12152573;19;20375;-85
2022/11/15 00:47:57;;;;;;;12.32;8.57;;;8.20;57.90;;;7.03;60.76;101151.06;12152199;19;20867;-85
2022/11/15 00:52:17;;;;;;;13.50;8.80;;;8.20;57.90;;;7.03;60.77;101151.06;12139440;19;20959;-85
2022/11/15 00:56:38;;;;;;;12.57;8.32;;;8.20;57.90;;;6.96;60.83;101127.94;12134391;19;20019;-85
2022/11/15 01:01:11;;;;;;;14.32;9.00;;;8.20;57.90;;;6.97;60.87;101140.06;12137941;19;21021;-85
2022/11/15 01:05:31;;;;;;;13.00;8.80;;;8.20;57.90;;;6.98;61.01;101128.75;12127263;19;20391;-84
2022/11/15 01:09:52;;;;;;;12.65;9.07;;;8.20;57.90;;;6.94;60.86;101120.22;12146530;19;20478;-85
2022/11/15 01:14:13;;;;;;;13.43;8.77;;;8.40;57.90;;;6.96;60.76;101121.00;12147359;19;20022;-85
2022/11/15 01:18:33;;;;;;;11.38;7.78;;;8.20;57.70;;;6.92;60.85;101127.22;12142818;19;20010;-85
2022/11/15 01:22:54;;;;;;;12.88;8.65;;;8.20;57.70;;;6.94;60.81;101125.41;12142887;19;20302;-85
2022/11/15 01:27:14;;;;;;;11.80;8.40;;;8.20;57.70;;;6.97;60.83;101127.91;12144359;19;20018;-85
2022/11/15 01:31:35;;;;;;;13.55;8.75;;;8.20;57.70;;;6.96;60.98;101113.22;12145953;19;20022;-85
2022/11/15 01:35:56;;;;;;;12.00;8.88;;;8.20;57.60;;;6.93;60.92;101107.28;12145495;19;20407;-84
2022/11/15 01:40:16;;;;;;;11.20;8.57;;;8.20;57.60;;;6.89;60.75;101105.72;12147539;19;20022;-85
2022/11/15 01:44:51;;;;;;;13.23;9.20;;;8.20;57.60;;;6.85;60.70;101105.78;12146650;19;20022;-85
2022/11/15 01:49:17;;;;;;;14.88;8.52;;;8.10;57.50;;;6.78;60.86;101088.75;12147434;19;20014;-85
2022/11/15 01:53:41;;;;;;;13.05;8.73;;;8.10;57.50;;;6.74;60.86;101081.09;12142905;19;20306;-84
2022/11/15 01:58:05;;;;;;;11.88;8.75;;;8.00;57.40;;;6.69;60.68;101072.63;12144466;19;20014;-84
2022/11/15 02:02:26;;;;;;;12.00;7.85;;;8.00;57.40;;;6.71;60.62;101069.06;12151521;19;20924;-84
2022/11/15 02:06:48;;;;;;;13.23;8.95;;;8.00;57.50;;;6.67;60.89;101077.88;12151757;19;20304;-84
2022/11/15 02:11:09;;;;;;;12.27;7.78;;;7.90;57.40;;;6.65;60.71;101074.47;12147028;19;20023;-85
2022/11/15 02:15:40;;;;;;;12.55;8.13;;;8.00;57.50;;;6.55;60.89;101065.28;12130638;19;20766;-85
2022/11/15 02:20:37;;;;;;;12.38;8.07;;;7.90;57.60;;;6.48;60.94;101062.06;12140211;19;20019;-85
2022/11/15 02:25:59;;;;;;;9.88;7.50;;;7.80;57.50;;;6.41;60.75;101052.78;12138573;19;20022;-85
2022/11/15 02:30:42;;;;;;;10.48;6.85;;;7.80;57.70;;;6.47;60.72;101059.50;12152100;19;20501;-84
2022/11/15 02:35:05;;;;;;;11.43;8.13;;;7.70;57.70;;;6.48;60.83;101063.78;12158836;19;20578;-85
2022/11/15 02:39:51;;;;;;;12.38;8.50;;;7.70;57.70;;;6.37;60.71;101041.66;12164775;19;20014;-84
2022/11/15 02:44:26;;;;;;;12.20;8.18;;;7.70;57.80;;;6.44;60.81;101057.88;12160315;19;20015;-84
2022/11/15 02:48:48;;;;;;;11.38;8.27;;;7.70;57.70;;;6.35;60.89;101034.84;12165649;19;20018;-84
2022/11/15 02:53:09;;;;;;;12.07;7.68;;;7.70;57.70;;;6.37;60.90;101049.44;12162168;19;20016;-85
2022/11/15 02:57:35;;;;;;;11.65;7.50;;;7.90;57.80;;;6.44;60.78;101055.28;12162866;19;20017;-84
2022/11/15 03:02:35;;;;;;;14.93;8.82;;;7.70;57.70;;;6.39;60.86;101059.75;12165556;19;20110;-85
2022/11/15 03:07:29;;;;;;;10.48;7.43;;;7.70;57.80;;;6.30;60.89;101039.31;12163379;19;20015;-85
2022/11/15 03:12:01;;;;;;;11.57;8.27;;;7.70;57.80;;;6.33;61.02;101036.63;12163828;19;20582;-85
2022/11/15 03:16:44;;;;;;;10.88;7.88;;;7.70;57.70;;;6.37;60.81;101048.56;12162483;19;20022;-85
2022/11/15 03:21:11;;;;;;;10.57;7.55;;;7.60;57.70;;;6.29;61.03;101037.59;12180944;19;20026;-85
2022/11/15 03:25:34;;;;;;;12.57;8.18;;;7.70;57.60;;;6.30;60.90;101037.56;12176059;19;20363;-85
2022/11/15 03:30:08;;;;;;;11.85;8.00;;;7.60;57.60;;;6.25;60.97;101028.25;12173545;19;20054;-85
2022/11/15 03:35:04;;;;;;;12.20;8.45;;;7.60;57.60;;;6.31;61.03;101039.25;12167970;19;20081;-85
2022/11/15 03:39:25;;;;;;;12.75;8.13;;;7.60;57.60;;;6.26;61.10;101030.75;12169435;19;20097;-85
2022/11/15 03:44:09;;;;;;;9.75;7.45;;;7.60;57.70;;;6.29;60.90;101032.41;12165399;19;20022;-85
2022/11/15 03:48:46;;;;;;;11.50;7.60;;;7.60;57.60;;;5.95;60.99;100974.72;12168957;19;20022;-85
2022/11/15 03:53:06;;;;;;;10.55;7.60;;;7.50;57.60;;;6.22;60.96;101013.63;12161576;19;20022;-84
2022/11/15 03:57:27;;;;;;;12.15;8.13;;;7.60;57.60;;;6.22;61.02;101029.19;12163405;19;20031;-85
2022/11/15 04:01:47;;;;;;;12.15;8.43;;;7.50;57.60;;;6.11;60.81;101010.53;12159569;19;20375;-84
2022/11/15 04:06:08;;;;;;;12.13;7.95;;;7.50;57.60;;;6.17;60.90;101020.69;12155548;19;21035;-84
2022/11/15 04:10:28;;;;;;;11.98;7.78;;;7.60;57.70;;;6.19;60.84;101029.28;12166440;19;20015;-85
2022/11/15 04:15:06;;;;;;;12.73;8.30;;;7.50;57.60;;;6.07;60.85;101008.94;12172368;19;20402;-84
2022/11/15 04:24:12;;;;;;;11.70;8.25;;;7.50;57.60;;;6.11;61.15;101013.97;12164710;19;20031;-84
2022/11/15 04:28:33;;;;;;;10.60;7.50;;;7.40;57.50;;;6.14;61.03;101028.59;12161917;19;20657;-84
2022/11/15 04:32:54;;;;;;;11.82;7.72;;;7.40;57.60;;;6.10;60.80;101014.00;12156350;19;20006;-85
2022/11/15 04:37:15;;;;;;;15.88;8.75;;;7.40;57.50;;;5.80;60.77;100961.38;12164215;19;20797;-84
2022/11/15 04:41:36;;;;;;;12.27;8.40;;;7.40;57.50;;;5.70;60.82;100956.50;12165033;19;20486;-84
2022/11/15 04:45:56;;;;;;;12.05;7.72;;;7.30;57.40;;;5.96;61.04;101002.34;12163754;19;20066;-84
2022/11/15 04:50:17;;;;;;;12.23;7.95;;;7.30;57.50;;;5.94;61.15;101003.28;12165795;19;20846;-85
2022/11/15 04:54:38;;;;;;;10.60;7.45;;;7.30;57.60;;;5.98;61.12;101004.88;12161977;19;20023;-85
2022/11/15 04:58:58;;;;;;;11.38;8.27;;;7.50;57.80;;;5.92;60.99;100997.28;12161490;19;20291;-84
2022/11/15 05:07:58;;;;;;;9.13;7.85;;;7.20;57.70;;;5.96;60.99;101002.34;12151926;19;21853;-85
2022/11/15 05:12:18;;;;;;;9.75;7.07;;;7.30;57.70;;;5.81;61.18;100976.88;12163883;19;20011;-85
2022/11/15 05:16:39;;;;;;;12.73;8.20;;;7.30;57.70;;;5.71;61.02;100959.94;12161549;19;20040;-84
2022/11/15 05:21:09;;;;;;;11.50;8.73;;;7.20;57.70;;;5.92;61.05;100984.31;12160125;19;20022;-84
2022/11/15 05:25:29;;;;;;;9.85;7.20;;;7.30;57.60;;;5.84;61.02;100976.78;12162721;19;20870;-85
2022/11/15 05:29:50;;;;;;;11.27;7.82;;;7.40;57.50;;;5.86;61.06;100974.13;12165180;19;20275;-85
2022/11/15 05:34:10;;;;;;;10.68;7.47;;;7.20;57.40;;;5.85;60.86;100980.22;12159695;19;20406;-85
2022/11/15 05:38:31;;;;;;;9.95;7.05;;;7.20;57.40;;;5.86;61.05;100992.28;12159907;19;20015;-84
2022/11/15 05:42:51;;;;;;;11.43;7.78;;;7.20;57.50;;;5.70;60.93;100964.25;12161907;19;20074;-85
2022/11/15 05:47:21;;;;;;;10.40;7.35;;;7.20;57.50;;;5.73;61.02;100977.13;12159886;19;20879;-85
2022/11/15 05:51:46;;;;;;;12.57;7.63;;;7.20;57.60;;;5.83;61.10;101000.16;12161477;19;20011;-85
2022/11/15 05:56:08;;;;;;;11.60;7.90;;;7.40;58.00;;;5.74;61.12;100977.97;12155453;19;20018;-84
2022/11/15 06:00:29;;;;;;;10.63;7.22;;;7.20;57.60;;;5.69;60.89;100982.44;12159943;19;20406;-85
2022/11/15 06:04:50;;;;;;;10.88;7.68;;;7.50;57.70;;;5.82;61.19;101007.06;12154321;19;20022;-85
2022/11/15 06:09:10;;;;;;;11.70;7.22;;;7.10;57.50;;;5.71;61.18;100991.84;12164141;19;20500;-84
2022/11/15 06:13:31;;;;;;;12.43;8.05;;;7.10;57.50;;;5.54;60.89;100968.22;12160483;19;20022;-84
2022/11/15 06:17:57;;;;;;;14.00;8.38;;;7.10;57.50;;;5.78;60.91;101013.25;12161998;19;20022;-85
2022/11/15 06:22:17;;;;;;;11.45;8.00;;;7.10;57.50;;;5.80;61.05;101019.22;12159138;19;20395;-84
2022/11/15 06:26:37;;;;;;;10.93;7.68;;;7.10;57.40;;;5.65;61.15;100996.41;12158516;19;20118;-84
2022/11/15 06:31:10;;;;;;;12.50;8.50;;;7.10;57.40;;;5.74;60.86;101019.41;12161787;19;20027;-86
2022/11/15 06:35:34;;;;;;;10.75;8.15;;;7.10;57.40;;;5.71;61.07;101017.78;12158689;19;20403;-85
2022/11/15 06:39:54;;;;;;;9.88;6.93;;;7.10;57.50;;;5.62;61.09;101009.44;12161846;19;20086;-85
2022/11/15 06:44:16;;;;;;;11.25;7.50;;;7.10;57.50;;;5.57;61.10;101004.38;12158792;19;20015;-84
2022/11/15 06:48:37;;;;;;;11.30;7.65;;;7.00;57.40;;;5.59;61.13;101017.28;12156531;19;20481;-84
2022/11/15 06:53:03;;;;;;;11.93;7.78;;;7.00;57.50;;;5.61;61.14;101037.06;12148277;19;20011;-84
2022/11/15 06:57:23;;;;;;;12.90;7.53;;;7.00;57.60;;;5.51;61.24;101007.19;12154487;19;20018;-84
2022/11/15 07:01:43;;;;;;;12.07;7.85;;;6.90;57.60;;;5.54;61.18;101009.66;12147452;19;20595;-84
2022/11/15 07:06:04;;;;;;;11.30;7.93;;;6.90;57.70;;;5.24;61.21;100960.47;12153608;19;20308;-83
2022/11/15 07:10:25;;;;;;;11.90;7.70;;;7.00;57.80;;;5.52;61.13;101008.84;12160709;19;20022;-84
2022/11/15 07:14:46;;;;;;;11.55;8.07;;;7.30;57.90;;;5.66;61.06;101030.00;12149014;19;20449;-84
2022/11/15 07:19:08;;;;;;;13.05;7.72;;;7.00;57.70;;;5.57;61.26;101006.97;12165135;19;20011;-85
2022/11/15 07:23:28;;;;;;;11.98;8.05;;;7.00;57.80;;;5.70;61.09;101038.56;12164147;19;20098;-84
2022/11/15 07:27:59;;;;;;;10.98;7.47;;;7.00;57.80;;;5.66;61.24;101032.59;12164395;19;20486;-84
2022/11/15 07:32:20;;;;;;;10.57;7.55;;;7.00;57.90;;;5.60;61.19;101013.81;12135964;19;20438;-84
2022/11/15 07:36:40;;;;;;;11.30;7.70;;;7.10;58.00;;;5.73;61.34;101035.88;12120305;19;20415;-84
2022/11/15 07:41:04;;;;;;;12.98;8.10;;;7.10;58.00;;;5.65;61.30;101027.47;12125266;19;20330;-83
2022/11/15 07:45:27;;;;;;;13.90;8.57;;;7.30;58.10;;;5.49;61.12;100996.00;12160895;19;20022;-84
2022/11/15 07:49:47;;;;;;;12.68;8.52;;;7.10;58.10;;;5.76;61.31;101036.63;12164488;19;20074;-84
2022/11/15 07:54:08;;;;;;;10.48;7.88;;;7.10;58.20;;;5.65;61.39;101004.16;12177454;19;20019;-86
2022/11/15 07:58:28;;;;;;;11.13;7.70;;;7.10;58.20;;;5.61;61.22;101002.56;12176642;19;20389;-83
2022/11/15 08:02:48;;;;;;;11.75;7.65;;;7.30;58.40;;;5.47;61.44;100970.13;12174795;19;20476;-82
2022/11/15 08:07:08;;;;;;;12.50;8.32;;;7.20;58.40;;;5.79;61.45;101014.09;12168190;19;20019;-84
2022/11/15 08:11:29;;;;;;;10.32;7.63;;;7.20;58.40;;;5.81;61.51;101004.56;12163234;19;20022;-86
2022/11/15 08:15:49;;;;;;;12.63;8.38;;;7.20;58.50;;;5.48;61.55;100952.84;12173980;19;20598;-84
2022/11/15 08:20:10;;;;;;;13.25;8.25;;;7.40;58.80;;;5.94;61.39;101014.50;12174369;19;20331;-84
2022/11/15 08:24:30;;;;;;;11.10;7.93;;;7.30;59.00;;;5.97;61.62;101026.53;12167436;19;20476;-84
2022/11/15 08:28:51;;;;;;;19.00;8.48;;;7.40;59.10;;;6.05;61.62;101021.97;12173567;19;20026;-83
2022/11/15 08:33:13;;;;;;;10.05;7.88;;;7.40;59.20;;;5.90;61.59;100986.09;12176928;19;20015;-84
2022/11/15 08:37:34;;;;;;;11.25;7.80;;;7.50;59.40;;;6.12;61.75;101007.88;12171201;19;20365;-83
2022/11/15 08:41:54;;;;;;;11.02;7.75;;;7.50;59.50;;;6.22;61.79;100998.06;12172462;19;20018;-84
2022/11/15 08:46:14;;;;;;;12.18;8.85;;;7.60;59.70;;;6.32;61.86;100999.47;12164042;19;20026;-84
2022/11/15 08:50:34;;;;;;;14.27;8.73;;;7.70;59.90;;;6.45;62.02;101012.84;12158647;19;20820;-84
2022/11/15 08:54:54;;;;;;;11.57;8.73;;;7.80;60.10;;;6.46;62.10;100991.22;12157011;19;20763;-83
2022/11/15 08:59:15;;;;;;;11.93;8.45;;;8.10;60.80;;;6.74;61.96;101019.66;12162912;19;20287;-84
2022/11/15 09:03:35;;;;;;;12.38;8.98;;;8.10;61.00;;;6.84;62.28;101007.22;12157871;19;20894;-84
2022/11/15 09:07:55;;;;;;;14.88;9.15;;;8.20;61.50;;;6.65;62.05;100945.56;12161115;19;20019;-84
2022/11/15 09:12:16;;;;;;;15.45;8.68;;;8.40;62.00;;;7.08;62.27;101002.91;12159045;19;20383;-84
2022/11/15 09:16:36;;;;;;;12.95;9.18;;;8.50;62.40;;;7.25;62.33;101007.47;12162205;19;20407;-84
2022/11/15 09:20:59;;;;;;;12.82;9.45;;;8.70;62.60;;;7.36;62.42;101000.13;12162246;19;20856;-84
2022/11/15 09:25:19;;;;;;;14.48;10.27;;;8.80;63.00;;;7.67;62.77;101019.75;12161678;19;20018;-84
2022/11/15 09:29:40;;;;;;;15.73;10.77;;;9.00;63.60;;;7.67;62.56;100971.22;12162659;19;20799;-84
2022/11/15 09:34:00;;;;;;;15.45;10.68;;;9.20;64.00;;;8.06;62.75;100998.28;12146111;19;20878;-84
2022/11/15 09:38:21;;;;;;;16.50;11.02;;;9.70;64.60;;;8.30;62.78;101004.25;12156527;19;20288;-84
2022/11/15 09:43:03;;;;;;;18.02;12.43;;;9.70;65.00;;;8.52;62.82;100999.88;12149947;19;20014;-85
2022/11/15 09:47:38;;;;;;;18.77;12.63;;;9.90;65.20;;;8.76;62.81;101003.19;12149713;19;20018;-85
2022/11/15 09:51:58;;;;;;;19.75;12.50;;;10.10;65.10;;;8.82;63.17;100970.81;12135578;19;20106;-84
2022/11/15 09:56:05;;;;;;;16.65;11.50;;;10.60;65.50;;;8.88;63.14;100946.28;12128515;19;20019;-84
2022/11/15 10:00:32;;;;;;;17.08;12.20;;;10.60;65.40;;;9.33;63.21;100986.81;12143224;19;20374;-84
2022/11/15 10:04:36;;;;;;;16.58;11.82;;;10.80;65.50;;;9.52;63.16;100975.44;12124965;19;20423;-84
2022/11/15 10:08:53;;;;;;;15.77;11.13;;;11.00;64.70;;;9.82;63.36;100989.72;12134068;19;20023;-84
2022/11/15 10:12:55;;;;;;;13.88;10.85;;;11.30;64.80;;;10.03;63.29;100993.06;12137161;19;20129;-85
2022/11/15 10:17:29;;;;;;;17.50;11.43;;;11.70;64.50;;;10.14;63.46;100977.72;12134767;19;20007;-85
2022/11/15 10:22:15;;;;;;;15.02;11.43;;;11.70;64.30;;;10.43;63.48;100975.47;12133973;19;20011;-85
2022/11/15 10:26:17;;;;;;;13.20;10.48;;;12.00;64.40;;;10.63;63.44;100964.81;12141415;19;20023;-82
2022/11/15 10:30:19;;;;;;;14.27;10.70;;;12.20;63.50;;;10.84;63.52;100961.09;12145867;19;20018;-86
2022/11/15 10:34:23;;;;;;;13.63;10.52;;;12.40;63.10;;;10.96;63.51;100949.16;12151774;19;20792;-85
2022/11/15 10:38:25;;;;;;;12.23;9.90;;;12.60;62.60;;;11.07;63.44;100935.50;12160061;19;20406;-85
2022/11/15 10:42:29;;;;;;;13.20;9.98;;;12.90;62.60;;;11.21;63.52;100934.78;12162000;19;20051;-85
2022/11/15 10:46:30;;;;;;;12.32;9.95;;;12.80;62.00;;;11.34;63.48;100917.50;12166208;19;20014;-87
2022/11/15 10:50:33;;;;;;;13.48;10.43;;;12.90;62.70;;;11.47;63.36;100918.47;12177568;19;20247;-86
2022/11/15 10:54:48;;;;;;;13.70;9.75;;;13.00;61.60;;;11.62;63.21;100918.56;12185122;19;20050;-87
2022/11/15 10:58:56;;;;;;;13.85;10.25;;;13.20;61.70;;;11.65;63.39;100905.31;12183437;19;20792;-85
2022/11/15 11:03:02;;;;;;;12.38;9.55;;;13.30;61.40;;;11.84;63.32;100919.03;12177728;19;20018;-86
2022/11/15 11:07:22;;;;;;;13.10;9.63;;;13.30;61.20;;;11.92;63.06;100911.59;12184438;19;20014;-85
2022/11/15 11:11:45;;;;;;;12.68;9.65;;;13.40;61.20;;;12.01;63.11;100901.53;12177435;19;20109;-85
2022/11/15 11:15:50;;;;;;;11.35;8.75;;;13.70;61.00;;;12.07;63.12;100901.16;12168206;19;20601;-85
2022/11/15 11:20:36;;;;;;;11.45;8.88;;;13.60;60.60;;;12.13;62.91;100896.44;12162153;19;20021;-85
2022/11/15 11:25:08;;;;;;;11.68;8.77;;;13.70;60.20;;;12.23;62.77;100896.72;12153597;19;20014;-85
2022/11/15 11:29:42;;;;;;;10.85;8.75;;;13.70;59.90;;;12.26;63.02;100873.00;12161453;19;20039;-85
2022/11/15 11:33:59;;;;;;;12.02;8.70;;;13.80;59.80;;;12.44;62.99;100872.81;12148597;19;20024;-86
2022/11/15 11:38:40;;;;;;;10.63;8.27;;;13.90;59.90;;;12.47;62.75;100859.50;12156956;19;20847;-85
2022/11/15 11:43:21;;;;;;;11.52;8.23;;;14.00;59.90;;;12.61;62.71;100860.38;12152264;19;20561;-85
2022/11/15 11:47:39;;;;;;;12.48;7.78;;;14.10;59.90;;;12.71;62.53;100865.03;12151344;19;20367;-85
2022/11/15 11:52:10;;;;;;;10.15;8.10;;;14.20;59.90;;;12.79;62.69;100841.81;12151873;19;20431;-84
2022/11/15 11:56:35;;;;;;;11.18;8.25;;;14.30;59.80;;;12.92;62.63;100847.13;12158346;19;20034;-84
2022/11/15 12:01:02;;;;;;;12.80;7.95;;;14.40;59.70;;;13.03;62.69;100849.91;12158645;19;20018;-85
2022/11/15 12:05:43;;;;;;;10.35;6.95;;;14.50;59.70;;;13.13;62.58;100850.19;12154908;19;20022;-85
2022/11/15 12:10:05;;;;;;;10.23;8.35;;;14.60;59.60;;;13.18;62.74;100846.31;12157215;19;20006;-84
2022/11/15 12:14:24;;;;;;;12.40;8.18;;;14.70;59.70;;;13.23;62.59;100835.50;12156736;19;20102;-85
2022/11/15 12:18:28;;;;;;;12.73;8.30;;;14.80;59.50;;;13.33;62.68;100835.81;12160899;19;20019;-84
2022/11/15 12:22:42;;;;;;;12.35;8.32;;;14.90;59.40;;;13.34;62.64;100816.50;12157631;19;20487;-85
2022/11/15 12:27:16;;;;;;;9.38;7.85;;;14.90;59.30;;;13.53;62.49;100837.97;12158646;19;20652;-85
2022/11/15 12:31:33;;;;;;;9.93;7.78;;;15.00;59.30;;;13.49;62.41;100807.63;12166830;19;20033;-87
2022/11/15 12:35:41;;;;;;;9.77;7.53;;;15.00;59.20;;;13.43;62.53;100780.00;12162404;19;20288;-85
2022/11/15 12:40:08;;;;;;;9.40;7.25;;;15.10;59.20;;;13.72;62.37;100820.06;12167757;19;20454;-86
2022/11/15 12:44:37;;;;;;;8.40;6.75;;;15.20;59.10;;;13.81;62.40;100815.13;12158227;19;20878;-86
2022/11/15 12:48:38;;;;;;;8.85;6.63;;;15.20;59.00;;;13.89;62.39;100808.41;12167002;19;20021;-85
2022/11/15 12:53:25;;;;;;;9.07;7.22;;;15.30;59.10;;;13.93;62.36;100809.91;12169078;19;20402;-85
2022/11/15 12:57:36;;;;;;;7.43;5.88;;;15.30;58.90;;;13.98;62.27;100796.44;12166063;19;20906;-84
2022/11/15 13:01:55;;;;;;;6.65;5.82;;;15.40;59.00;;;14.00;62.20;100776.19;12163280;19;20038;-86
2022/11/15 13:06:00;;;;;;;7.22;6.25;;;15.50;59.00;;;14.09;62.24;100782.59;12161351;19;20042;-84
2022/11/15 13:10:24;;;;;;;7.07;6.38;;;15.50;59.00;;;14.19;62.29;100788.88;12165478;19;20426;-84
2022/11/15 13:14:46;;;;;;;8.43;6.60;;;15.60;58.90;;;14.26;62.24;100792.78;12162756;19;21154;-84
2022/11/15 13:18:54;;;;;;;7.47;6.25;;;15.60;58.90;;;14.22;62.04;100772.06;12169401;19;20397;-84
2022/11/15 13:23:02;;;;;;;9.70;6.88;;;15.60;59.00;;;14.35;62.07;100786.03;12170102;19;20759;-85
2022/11/15 13:27:18;;;;;;;7.47;6.53;;;15.70;58.90;;;14.32;61.94;100776.56;12166238;19;20049;-85
2022/11/15 13:31:40;;;;;;;7.93;5.75;;;15.70;58.90;;;14.37;61.95;100771.00;12165984;19;20310;-85
2022/11/15 13:35:45;;;;;;;7.13;5.85;;;15.70;58.70;;;14.44;62.07;100780.13;12160820;19;20451;-84
2022/11/15 13:39:49;;;;;;;9.35;5.72;;;15.80;58.80;;;14.34;62.03;100766.81;12164403;19;20319;-84
2022/11/15 13:43:53;;;;;;;8.30;6.03;;;15.80;58.80;;;14.39;61.87;100771.72;12159227;19;20790;-84
2022/11/15 13:47:58;;;;;;;7.97;6.07;;;15.80;58.90;;;14.48;61.89;100778.97;12164486;19;20018;-85
2022/11/15 13:52:07;;;;;;;6.45;5.68;;;15.80;58.90;;;14.49;61.84;100778.00;12177990;19;20014;-85
2022/11/15 13:56:09;;;;;;;7.22;5.03;;;15.80;58.80;;;14.36;61.70;100754.38;12174082;19;20549;-85
2022/11/15 14:00:30;;;;;;;7.55;5.88;;;15.80;58.80;;;14.42;61.69;100775.91;12176525;19;20375;-84
2022/11/15 14:04:45;;;;;;;6.35;5.22;;;15.70;58.70;;;14.38;61.69;100770.03;12172883;19;20026;-83
2022/11/15 14:09:05;;;;;;;5.03;4.57;;;15.70;58.70;;;14.34;61.63;100766.81;12170216;19;20035;-86
2022/11/15 14:13:31;;;;;;;6.07;5.38;;;15.60;58.70;;;14.21;61.74;100760.72;12173677;19;20646;-86
2022/11/15 14:17:38;;;;;;;6.20;4.70;;;15.60;58.80;;;14.25;61.64;100759.56;12168911;19;20022;-85
2022/11/15 14:22:15;;;;;;;5.82;4.93;;;15.50;58.80;;;14.27;61.60;100780.47;12171942;19;20041;-86
2022/11/15 14:26:32;;;;;;;5.47;4.63;;;15.50;58.80;;;14.23;61.52;100777.22;12174198;19;20386;-85
2022/11/15 14:30:34;;;;;;;6.93;5.15;;;15.50;58.80;;;14.13;61.61;100757.81;12175057;19;20019;-85
2022/11/15 14:34:36;;;;;;;6.47;5.28;;;15.40;58.80;;;14.13;61.60;100761.25;12177576;19;20309;-87
2022/11/15 14:38:38;;;;;;;6.88;5.35;;;15.40;58.80;;;14.16;61.51;100766.28;12180732;19;20367;-86
2022/11/15 14:42:40;;;;;;;6.43;5.80;;;15.30;58.70;;;14.11;61.50;100768.41;12178530;19;20762;-84
2022/11/15 14:46:42;;;;;;;6.15;5.15;;;15.30;58.70;;;13.99;61.48;100744.75;12176532;19;21029;-86
2022/11/15 14:50:44;;;;;;;6.32;4.97;;;15.20;58.70;;;14.04;61.32;100759.28;12180444;19;20383;-86
2022/11/15 14:54:46;;;;;;;6.78;5.35;;;15.20;58.70;;;13.93;61.33;100752.16;12163854;19;20015;-85
2022/11/15 14:58:48;;;;;;;5.32;4.82;;;15.10;58.60;;;13.58;61.34;100703.84;12150484;19;20431;-85
2022/11/15 15:02:53;;;;;;;7.05;5.35;;;15.00;58.60;;;13.85;61.37;100749.22;12178107;19;20136;-85
2022/11/15 15:06:55;;;;;;;5.25;4.75;;;15.00;58.70;;;13.79;61.30;100741.72;12186720;19;20315;-86
2022/11/15 15:10:56;;;;;;;5.93;4.85;;;14.90;58.60;;;13.75;61.31;100747.31;12182108;19;20463;-85
2022/11/15 15:14:58;;;;;;;5.55;4.95;;;14.80;58.60;;;13.64;61.31;100746.25;12165266;19;20029;-85
2022/11/15 15:19:00;;;;;;;6.07;5.03;;;14.80;58.60;;;13.54;61.23;100737.31;12178263;19;20015;-85
2022/11/15 15:23:01;;;;;;;11.25;5.07;;;14.70;58.60;;;13.55;61.15;100738.16;12179023;19;20022;-85
2022/11/15 15:27:03;;;;;;;6.13;4.63;;;14.60;58.60;;;13.46;61.04;100735.22;12170870;19;20022;-85
2022/11/15 15:31:05;;;;;;;5.60;4.97;;;14.60;58.60;;;13.13;61.09;100690.25;12172600;19;20027;-85
2022/11/15 15:35:10;;;;;;;5.68;4.65;;;14.50;58.60;;;13.22;61.05;100719.28;12169764;19;20387;-85
2022/11/15 15:39:12;;;;;;;5.90;5.05;;;14.40;58.60;;;13.14;61.13;100705.84;12181027;19;20553;-85
2022/11/15 15:43:14;;;;;;;5.65;4.38;;;14.30;58.60;;;12.99;60.97;100688.53;12173079;19;20134;-85
2022/11/15 15:47:22;;;;;;;5.65;4.75;;;14.20;58.60;;;13.11;60.97;100727.03;12171547;19;20560;-85
2022/11/15 15:51:23;;;;;;;6.28;5.32;;;14.20;58.60;;;13.07;61.01;100729.03;12174613;19;20022;-85
2022/11/15 15:55:26;;;;;;;6.38;5.25;;;14.10;58.60;;;12.93;61.01;100710.72;12171125;19;20014;-84
2022/11/15 15:59:28;;;;;;;8.57;6.03;;;14.00;58.70;;;12.97;61.12;100720.06;12173017;19;20014;-85
2022/11/15 16:03:30;;;;;;;8.73;6.85;;;13.90;58.70;;;12.82;61.09;100697.47;12165834;19;20280;-84
2022/11/15 16:07:32;;;;;;;7.45;5.35;;;13.90;58.60;;;12.76;60.92;100698.72;12176254;19;20018;-86
2022/11/15 16:11:33;;;;;;;7.20;6.20;;;13.90;58.60;;;12.69;60.94;100692.22;12176798;19;20469;-85
2022/11/15 16:15:35;;;;;;;8.63;6.82;;;13.80;58.50;;;12.65;60.85;100706.44;12169397;19;20438;-85
2022/11/15 16:19:37;;;;;;;6.68;5.18;;;13.70;58.40;;;12.51;60.85;100691.59;12171117;19;20121;-85
2022/11/15 16:23:39;;;;;;;8.57;5.72;;;13.60;58.40;;;12.49;60.83;100708.34;12169072;19;20018;-85
2022/11/15 16:27:44;;;;;;;6.03;4.78;;;13.50;58.40;;;12.43;60.80;100709.59;12169183;19;20378;-86
2022/11/15 16:31:46;;;;;;;5.50;4.70;;;13.40;58.50;;;12.36;60.89;100711.72;12169439;19;20776;-85
2022/11/15 16:35:47;;;;;;;7.05;5.43;;;13.40;58.60;;;12.25;60.79;100716.81;12163990;19;20582;-89
2022/11/15 16:39:50;;;;;;;6.78;4.68;;;13.20;58.60;;;12.23;61.00;100707.38;12160425;19;20010;-86
2022/11/15 16:43:52;;;;;;;5.18;4.30;;;13.20;58.60;;;12.05;60.70;100680.56;12163003;19;20018;-85
2022/11/15 16:47:54;;;;;;;5.68;5.05;;;13.10;58.40;;;12.04;60.50;100697.19;12162285;19;20102;-85
2022/11/15 16:51:56;;;;;;;7.20;4.18;;;13.10;58.40;;;11.84;60.81;100691.38;12163111;19;20014;-86
2022/11/15 16:55:57;;;;;;;10.88;5.35;;;13.00;58.50;;;11.70;60.99;100673.91;12155812;19;20041;-85
2022/11/15 16:59:59;;;;;;;8.25;5.32;;;12.90;58.70;;;11.63;60.79;100661.28;12162021;19;20022;-85
2022/11/15 17:04:15;;;;;;;7.85;5.60;;;12.80;58.60;;;11.50;60.81;100656.81;12165985;19;20018;-86
2022/11/15 17:08:19;;;;;;;8.00;5.95;;;12.70;58.60;;;11.44;60.85;100661.56;12162004;19;20015;-85
2022/11/15 17:12:21;;;;;;;9.50;7.78;;;12.60;58.50;;;11.53;60.71;100692.41;12162205;19;20064;-85
2022/11/15 17:16:22;;;;;;;12.68;9.80;;;12.50;58.60;;;11.48;60.81;100695.28;12160038;19;20022;-86
2022/11/15 17:20:24;;;;;;;15.63;10.63;;;12.50;58.80;;;11.47;61.06;100695.38;12162911;19;20029;-86
2022/11/15 17:24:26;;;;;;;17.30;12.88;;;12.40;59.00;;;11.33;60.85;100667.44;12162448;19;20011;-86
2022/11/15 17:28:28;;;;;;;16.42;11.85;;;12.40;59.20;;;11.32;61.07;100680.59;12155848;19;20033;-86
2022/11/15 17:32:29;;;;;;;17.27;13.18;;;12.30;59.30;;;11.30;61.08;100673.69;12161486;19;20007;-86
2022/11/15 17:36:33;;;;;;;17.13;12.77;;;12.30;59.30;;;11.04;60.91;100641.25;12163113;19;20290;-86
2022/11/15 17:40:35;;;;;;;16.58;11.65;;;12.40;59.30;;;11.15;60.96;100656.31;12166040;19;20050;-86
2022/11/15 17:44:37;;;;;;;19.02;12.80;;;12.20;59.30;;;11.19;61.06;100667.41;12165274;19;20026;-86
2022/11/15 17:48:39;;;;;;;18.55;13.02;;;12.10;59.50;;;11.19;60.96;100670.03;12155499;19;20382;-85
2022/11/15 17:52:40;;;;;;;20.08;12.82;;;12.20;59.60;;;11.17;61.24;100664.03;12151281;19;20319;-86